Leonie — PHLE — position and weather

sailwx.info

Track history (hours):
 
Tides and Currents Weather Stations Pressure Air Temp Water Temp Dewpoint Dewpoint Depression Visibility Wind Speed Wind Dir Waves Ship Positions

Leonie

Last reported at 2017-Feb-23 22:33 UTC. Time now 2017-Feb-24 08:06 UTC.
Position N 54°01' E 007°54'.

Length 90 m; draft 5.4 m.

Type: Cargo ship. MMSI: 244772000.

Date/timePositionNaut miles runAvg speedWind from/ knotsBaromVisibWave heightAir tempDewpointWater temp
2017-Feb-23 22:33N 54°01' E 007°54'10 9.7
2017-Feb-23 21:33N 54°01' E 008°10'9 9.1
2017-Feb-23 20:33N 53°59' E 008°25'8 8.4
2017-Feb-23 19:33N 53°57' E 008°39'8 8.3
2017-Feb-23 18:33N 53°51' E 008°48'10 9.9
2017-Feb-23 17:33N 53°52' E 009°05'3 3.0
2017-Feb-23 16:33N 53°54' E 009°09'0 0.2
2017-Feb-23 15:33N 53°54' E 009°09'1 1.2
2017-Feb-23 14:33N 53°55' E 009°11'8 8.0
2017-Feb-23 13:33N 54°01' E 009°18'45 5.5
2017-Feb-23 05:22N 54°30' E 010°18'8 9.5
2017-Feb-23 04:33N 54°33' E 010°30'9 9.1
2017-Feb-23 03:34N 54°35' E 010°45'8 8.3
2017-Feb-23 02:34N 54°36' E 010°59'7 7.0
2017-Feb-23 01:34N 54°36' E 011°11'7 7.3
2017-Feb-23 00:34N 54°33' E 011°23'8 7.5
2017-Feb-22 23:34N 54°30' E 011°35'8 7.2
2017-Feb-22 22:27N 54°28' E 011°48'7 7.4
2017-Feb-22 21:34N 54°27' E 011°59'7 6.9
2017-Feb-22 20:34N 54°29' E 012°11'8 8.1
2017-Feb-22 19:34N 54°36' E 012°15'8 7.6
2017-Feb-22 18:33N 54°41' E 012°26'43 8.2
2017-Feb-22 13:18N 54°58' E 013°34'7 9.6
2017-Feb-22 12:32N 55°00' E 013°47'10 9.4
2017-Feb-22 11:28N 55°04' E 014°03'8 8.6
2017-Feb-22 10:33N 55°10' E 014°12'7 7.3
2017-Feb-22 09:33N 55°16' E 014°20'8 7.5
2017-Feb-22 08:33N 55°22' E 014°28'8 7.8
2017-Feb-22 07:33N 55°27' E 014°38'8 8.4
2017-Feb-22 06:33N 55°32' E 014°50'9 9.2
2017-Feb-22 05:34N 55°36' E 015°04'10 9.8
2017-Feb-22 04:34N 55°41' E 015°19'1010.1
2017-Feb-22 03:34N 55°46' E 015°35'1010.1
2017-Feb-22 02:33N 55°51' E 015°50'1010.2
2017-Feb-22 01:34N 55°57' E 016°06'1010.4
2017-Feb-22 00:34N 56°02' E 016°22'1110.5
2017-Feb-21 23:33N 56°07' E 016°38'10 9.7
2017-Feb-21 22:34N 56°16' E 016°47'61 7.6
2017-Feb-21 14:31N 57°17' E 016°46'10 9.9
2017-Feb-21 13:34N 57°09' E 016°35'4 3.7
2017-Feb-21 12:34N 57°06' E 016°33'0 0.0
2017-Feb-21 11:33N 57°06' E 016°33'0 0.0
2017-Feb-21 10:33N 57°06' E 016°33'0 0.0
2017-Feb-21 09:33N 57°06' E 016°33'0 0.0
2017-Feb-21 08:33N 57°06' E 016°33'0 0.0
2017-Feb-21 07:33N 57°06' E 016°33'0 0.0
2017-Feb-21 06:33N 57°06' E 016°33'0 0.0
2017-Feb-21 05:33N 57°06' E 016°33'0 0.0
2017-Feb-21 04:33N 57°06' E 016°33'0 0.0
2017-Feb-21 03:33N 57°06' E 016°33'0 0.0
2017-Feb-21 02:33N 57°06' E 016°33'0 0.0
2017-Feb-21 01:33N 57°06' E 016°33'0 0.0
2017-Feb-21 00:33N 57°06' E 016°33'0 0.0
2017-Feb-20 23:33N 57°06' E 016°33'0 0.0
2017-Feb-20 22:33N 57°06' E 016°33'0 0.0
2017-Feb-20 21:33N 57°06' E 016°33'0 0.0
2017-Feb-20 20:33N 57°06' E 016°33'0 0.0
2017-Feb-20 19:33N 57°06' E 016°33'0 0.0
2017-Feb-20 18:33N 57°06' E 016°33'0 0.0
2017-Feb-20 17:33N 57°06' E 016°33'1 0.9
2017-Feb-20 16:33N 57°07' E 016°33'7 7.2
2017-Feb-20 15:33N 57°14' E 016°35'4 4.2
2017-Feb-20 14:33N 57°16' E 016°29'0 0.0
2017-Feb-20 13:32N 57°16' E 016°29'0 0.0
2017-Feb-20 12:32N 57°16' E 016°29'0 0.0
2017-Feb-20 11:32N 57°16' E 016°29'0 0.0
2017-Feb-20 10:32N 57°16' E 016°29'0 0.0
2017-Feb-20 09:32N 57°16' E 016°29'0 0.0
2017-Feb-20 08:32N 57°16' E 016°29'0 0.0
2017-Feb-20 07:32N 57°16' E 016°29'0 0.0
2017-Feb-20 06:32N 57°16' E 016°29'0 0.0
2017-Feb-20 05:32N 57°16' E 016°29'0 0.0
2017-Feb-20 04:32N 57°16' E 016°29'0 0.0
2017-Feb-20 03:32N 57°16' E 016°29'0 0.0
2017-Feb-20 02:32N 57°16' E 016°29'0 0.0
2017-Feb-20 01:32N 57°16' E 016°29'0 0.0
2017-Feb-20 00:32N 57°16' E 016°29'0 0.0
2017-Feb-19 23:32N 57°16' E 016°29'0 0.0
2017-Feb-19 22:32N 57°16' E 016°29'0 0.0
2017-Feb-19 21:32N 57°16' E 016°29'0 0.0
2017-Feb-19 20:32N 57°16' E 016°29'0 0.0
2017-Feb-19 19:32N 57°16' E 016°29'0 0.0
2017-Feb-19 18:32N 57°16' E 016°29'0 0.0
2017-Feb-19 17:32N 57°16' E 016°29'0 0.0
2017-Feb-19 16:32N 57°16' E 016°29'0 0.0
2017-Feb-19 15:32N 57°16' E 016°29'0 0.0
2017-Feb-19 14:29N 57°16' E 016°29'0 0.0
2017-Feb-19 13:31N 57°16' E 016°29'0 0.0
2017-Feb-19 12:32N 57°16' E 016°29'0 0.0
2017-Feb-19 11:32N 57°16' E 016°29'0 0.0
2017-Feb-19 10:31N 57°16' E 016°29'0 0.0
2017-Feb-19 09:22N 57°16' E 016°29'0 0.0
2017-Feb-19 08:31N 57°16' E 016°29'0 0.0
2017-Feb-19 07:31N 57°16' E 016°29'0 0.0
2017-Feb-19 06:31N 57°16' E 016°29'0 0.0
2017-Feb-19 05:31N 57°16' E 016°29'0 0.0
2017-Feb-19 04:31N 57°16' E 016°29'0 0.0
2017-Feb-19 03:31N 57°16' E 016°29'0 0.0
2017-Feb-19 02:31N 57°16' E 016°29'0 0.0
2017-Feb-19 01:31N 57°16' E 016°29'0 0.0
2017-Feb-19 00:31N 57°16' E 016°29'0 0.0
2017-Feb-18 23:31N 57°16' E 016°29'0 0.0
2017-Feb-18 22:31N 57°16' E 016°29'0 0.0
2017-Feb-18 21:31N 57°16' E 016°29'0 0.0
2017-Feb-18 20:31N 57°16' E 016°29'0 0.0
2017-Feb-18 19:31N 57°16' E 016°29'0 0.0
2017-Feb-18 18:31N 57°16' E 016°29'0 0.0
2017-Feb-18 17:31N 57°16' E 016°29'0 0.0
2017-Feb-18 16:31N 57°16' E 016°29'0 0.0
2017-Feb-18 15:31N 57°16' E 016°29'0 0.0
2017-Feb-18 14:31N 57°16' E 016°29'0 0.0
2017-Feb-18 13:31N 57°16' E 016°29'0 0.0
2017-Feb-18 12:31N 57°16' E 016°29'0 0.0
2017-Feb-18 11:31N 57°16' E 016°29'0 0.0
2017-Feb-18 10:31N 57°16' E 016°29'0 0.0
2017-Feb-18 09:31N 57°16' E 016°29'0 0.0
2017-Feb-18 08:31N 57°16' E 016°29'0 0.0
2017-Feb-18 07:31N 57°16' E 016°29'0 0.0
2017-Feb-18 06:31N 57°16' E 016°29'0 0.0
2017-Feb-18 05:31N 57°16' E 016°29'0 0.0
2017-Feb-18 04:31N 57°16' E 016°29'0 0.0
2017-Feb-18 03:31N 57°16' E 016°29'0 0.0
2017-Feb-18 02:31N 57°16' E 016°29'0 0.0
2017-Feb-18 01:31N 57°16' E 016°29'0 0.0
2017-Feb-18 00:31N 57°16' E 016°29'0 0.0
2017-Feb-17 23:31N 57°16' E 016°29'0 0.0
2017-Feb-17 22:31N 57°16' E 016°29'0 0.0
2017-Feb-17 21:31N 57°16' E 016°29'0 0.0
2017-Feb-17 20:31N 57°16' E 016°29'0 0.0
2017-Feb-17 19:31N 57°16' E 016°29'0 0.0
2017-Feb-17 18:31N 57°16' E 016°29'0 0.0
2017-Feb-17 17:31N 57°16' E 016°29'0 0.0
2017-Feb-17 16:31N 57°16' E 016°29'0 0.0
2017-Feb-17 15:31N 57°16' E 016°29'0 0.0
2017-Feb-17 14:31N 57°16' E 016°29'0 0.0
2017-Feb-17 13:31N 57°16' E 016°29'0 0.0
2017-Feb-17 12:31N 57°16' E 016°29'0 0.0
2017-Feb-17 11:31N 57°16' E 016°29'1 0.6
2017-Feb-17 10:33N 57°16' E 016°30'190 8.6
2017-Feb-16 12:32N 60°08' E 019°07'9 9.7
2017-Feb-16 11:33N 60°16' E 019°00'  
Track history (hours):
 
Tides and Currents Weather Stations Pressure Air Temp Water Temp Dewpoint Dewpoint Depression Visibility Wind Speed Wind Dir Waves Ship Positions

Leonie

Last reported at 2017-Feb-23 22:33 UTC. Time now 2017-Feb-24 08:06 UTC.
Position N 54°01' E 007°54'.

Length 90 m; draft 5.4 m.

Type: Cargo ship. MMSI: 244772000.

Date/timePositionNaut miles runAvg speedWind from/ knotsBaromVisibWave heightAir tempDewpointWater temp
2017-Feb-23 22:33N 54°01' E 007°54'10 9.7
2017-Feb-23 21:33N 54°01' E 008°10'9 9.1
2017-Feb-23 20:33N 53°59' E 008°25'8 8.4
2017-Feb-23 19:33N 53°57' E 008°39'8 8.3
2017-Feb-23 18:33N 53°51' E 008°48'10 9.9
2017-Feb-23 17:33N 53°52' E 009°05'3 3.0
2017-Feb-23 16:33N 53°54' E 009°09'0 0.2
2017-Feb-23 15:33N 53°54' E 009°09'1 1.2
2017-Feb-23 14:33N 53°55' E 009°11'8 8.0
2017-Feb-23 13:33N 54°01' E 009°18'45 5.5
2017-Feb-23 05:22N 54°30' E 010°18'8 9.5
2017-Feb-23 04:33N 54°33' E 010°30'9 9.1
2017-Feb-23 03:34N 54°35' E 010°45'8 8.3
2017-Feb-23 02:34N 54°36' E 010°59'7 7.0
2017-Feb-23 01:34N 54°36' E 011°11'7 7.3
2017-Feb-23 00:34N 54°33' E 011°23'8 7.5
2017-Feb-22 23:34N 54°30' E 011°35'8 7.2
2017-Feb-22 22:27N 54°28' E 011°48'7 7.4
2017-Feb-22 21:34N 54°27' E 011°59'7 6.9
2017-Feb-22 20:34N 54°29' E 012°11'8 8.1
2017-Feb-22 19:34N 54°36' E 012°15'8 7.6
2017-Feb-22 18:33N 54°41' E 012°26'43 8.2
2017-Feb-22 13:18N 54°58' E 013°34'7 9.6
2017-Feb-22 12:32N 55°00' E 013°47'10 9.4
2017-Feb-22 11:28N 55°04' E 014°03'8 8.6
2017-Feb-22 10:33N 55°10' E 014°12'7 7.3
2017-Feb-22 09:33N 55°16' E 014°20'8 7.5
2017-Feb-22 08:33N 55°22' E 014°28'8 7.8
2017-Feb-22 07:33N 55°27' E 014°38'8 8.4
2017-Feb-22 06:33N 55°32' E 014°50'9 9.2
2017-Feb-22 05:34N 55°36' E 015°04'10 9.8
2017-Feb-22 04:34N 55°41' E 015°19'1010.1
2017-Feb-22 03:34N 55°46' E 015°35'1010.1
2017-Feb-22 02:33N 55°51' E 015°50'1010.2
2017-Feb-22 01:34N 55°57' E 016°06'1010.4
2017-Feb-22 00:34N 56°02' E 016°22'1110.5
2017-Feb-21 23:33N 56°07' E 016°38'10 9.7
2017-Feb-21 22:34N 56°16' E 016°47'61 7.6
2017-Feb-21 14:31N 57°17' E 016°46'10 9.9
2017-Feb-21 13:34N 57°09' E 016°35'4 3.7
2017-Feb-21 12:34N 57°06' E 016°33'0 0.0
2017-Feb-21 11:33N 57°06' E 016°33'0 0.0
2017-Feb-21 10:33N 57°06' E 016°33'0 0.0
2017-Feb-21 09:33N 57°06' E 016°33'0 0.0
2017-Feb-21 08:33N 57°06' E 016°33'0 0.0
2017-Feb-21 07:33N 57°06' E 016°33'0 0.0
2017-Feb-21 06:33N 57°06' E 016°33'0 0.0
2017-Feb-21 05:33N 57°06' E 016°33'0 0.0
2017-Feb-21 04:33N 57°06' E 016°33'0 0.0
2017-Feb-21 03:33N 57°06' E 016°33'0 0.0
2017-Feb-21 02:33N 57°06' E 016°33'0 0.0
2017-Feb-21 01:33N 57°06' E 016°33'0 0.0
2017-Feb-21 00:33N 57°06' E 016°33'0 0.0
2017-Feb-20 23:33N 57°06' E 016°33'0 0.0
2017-Feb-20 22:33N 57°06' E 016°33'0 0.0
2017-Feb-20 21:33N 57°06' E 016°33'0 0.0
2017-Feb-20 20:33N 57°06' E 016°33'0 0.0
2017-Feb-20 19:33N 57°06' E 016°33'0 0.0
2017-Feb-20 18:33N 57°06' E 016°33'0 0.0
2017-Feb-20 17:33N 57°06' E 016°33'1 0.9
2017-Feb-20 16:33N 57°07' E 016°33'7 7.2
2017-Feb-20 15:33N 57°14' E 016°35'4 4.2
2017-Feb-20 14:33N 57°16' E 016°29'0 0.0
2017-Feb-20 13:32N 57°16' E 016°29'0 0.0
2017-Feb-20 12:32N 57°16' E 016°29'0 0.0
2017-Feb-20 11:32N 57°16' E 016°29'0 0.0
2017-Feb-20 10:32N 57°16' E 016°29'0 0.0
2017-Feb-20 09:32N 57°16' E 016°29'0 0.0
2017-Feb-20 08:32N 57°16' E 016°29'0 0.0
2017-Feb-20 07:32N 57°16' E 016°29'0 0.0
2017-Feb-20 06:32N 57°16' E 016°29'0 0.0
2017-Feb-20 05:32N 57°16' E 016°29'0 0.0
2017-Feb-20 04:32N 57°16' E 016°29'0 0.0
2017-Feb-20 03:32N 57°16' E 016°29'0 0.0
2017-Feb-20 02:32N 57°16' E 016°29'0 0.0
2017-Feb-20 01:32N 57°16' E 016°29'0 0.0
2017-Feb-20 00:32N 57°16' E 016°29'0 0.0
2017-Feb-19 23:32N 57°16' E 016°29'0 0.0
2017-Feb-19 22:32N 57°16' E 016°29'0 0.0
2017-Feb-19 21:32N 57°16' E 016°29'0 0.0
2017-Feb-19 20:32N 57°16' E 016°29'0 0.0
2017-Feb-19 19:32N 57°16' E 016°29'0 0.0
2017-Feb-19 18:32N 57°16' E 016°29'0 0.0
2017-Feb-19 17:32N 57°16' E 016°29'0 0.0
2017-Feb-19 16:32N 57°16' E 016°29'0 0.0
2017-Feb-19 15:32N 57°16' E 016°29'0 0.0
2017-Feb-19 14:29N 57°16' E 016°29'0 0.0
2017-Feb-19 13:31N 57°16' E 016°29'0 0.0
2017-Feb-19 12:32N 57°16' E 016°29'0 0.0
2017-Feb-19 11:32N 57°16' E 016°29'0 0.0
2017-Feb-19 10:31N 57°16' E 016°29'0 0.0
2017-Feb-19 09:22N 57°16' E 016°29'0 0.0
2017-Feb-19 08:31N 57°16' E 016°29'0 0.0
2017-Feb-19 07:31N 57°16' E 016°29'0 0.0
2017-Feb-19 06:31N 57°16' E 016°29'0 0.0
2017-Feb-19 05:31N 57°16' E 016°29'0 0.0
2017-Feb-19 04:31N 57°16' E 016°29'0 0.0
2017-Feb-19 03:31N 57°16' E 016°29'0 0.0
2017-Feb-19 02:31N 57°16' E 016°29'0 0.0
2017-Feb-19 01:31N 57°16' E 016°29'0 0.0
2017-Feb-19 00:31N 57°16' E 016°29'0 0.0
2017-Feb-18 23:31N 57°16' E 016°29'0 0.0
2017-Feb-18 22:31N 57°16' E 016°29'0 0.0
2017-Feb-18 21:31N 57°16' E 016°29'0 0.0
2017-Feb-18 20:31N 57°16' E 016°29'0 0.0
2017-Feb-18 19:31N 57°16' E 016°29'0 0.0
2017-Feb-18 18:31N 57°16' E 016°29'0 0.0
2017-Feb-18 17:31N 57°16' E 016°29'0 0.0
2017-Feb-18 16:31N 57°16' E 016°29'0 0.0
2017-Feb-18 15:31N 57°16' E 016°29'0 0.0
2017-Feb-18 14:31N 57°16' E 016°29'0 0.0
2017-Feb-18 13:31N 57°16' E 016°29'0 0.0
2017-Feb-18 12:31N 57°16' E 016°29'0 0.0
2017-Feb-18 11:31N 57°16' E 016°29'0 0.0
2017-Feb-18 10:31N 57°16' E 016°29'0 0.0
2017-Feb-18 09:31N 57°16' E 016°29'0 0.0
2017-Feb-18 08:31N 57°16' E 016°29'0 0.0
2017-Feb-18 07:31N 57°16' E 016°29'0 0.0
2017-Feb-18 06:31N 57°16' E 016°29'0 0.0
2017-Feb-18 05:31N 57°16' E 016°29'0 0.0
2017-Feb-18 04:31N 57°16' E 016°29'0 0.0
2017-Feb-18 03:31N 57°16' E 016°29'0 0.0
2017-Feb-18 02:31N 57°16' E 016°29'0 0.0
2017-Feb-18 01:31N 57°16' E 016°29'0 0.0
2017-Feb-18 00:31N 57°16' E 016°29'0 0.0
2017-Feb-17 23:31N 57°16' E 016°29'0 0.0
2017-Feb-17 22:31N 57°16' E 016°29'0 0.0
2017-Feb-17 21:31N 57°16' E 016°29'0 0.0
2017-Feb-17 20:31N 57°16' E 016°29'0 0.0
2017-Feb-17 19:31N 57°16' E 016°29'0 0.0
2017-Feb-17 18:31N 57°16' E 016°29'0 0.0
2017-Feb-17 17:31N 57°16' E 016°29'0 0.0
2017-Feb-17 16:31N 57°16' E 016°29'0 0.0
2017-Feb-17 15:31N 57°16' E 016°29'0 0.0
2017-Feb-17 14:31N 57°16' E 016°29'0 0.0
2017-Feb-17 13:31N 57°16' E 016°29'0 0.0
2017-Feb-17 12:31N 57°16' E 016°29'0 0.0
2017-Feb-17 11:31N 57°16' E 016°29'1 0.6
2017-Feb-17 10:33N 57°16' E 016°30'190 8.6
2017-Feb-16 12:32N 60°08' E 019°07'9 9.7
2017-Feb-16 11:33N 60°16' E 019°00'  

Dump ship's entire track history